sensor_id;sensor_type;location;lat;lon;timestamp;temperature;humidity
55828;DHT22;41758;51.992;5.890;2023-02-28T00:00:28;6.60;56.90
55828;DHT22;41758;51.992;5.890;2023-02-28T00:02:53;6.70;57.80
55828;DHT22;41758;51.992;5.890;2023-02-28T00:05:21;6.70;57.10
55828;DHT22;41758;51.992;5.890;2023-02-28T00:07:47;6.80;58.20
55828;DHT22;41758;51.992;5.890;2023-02-28T00:10:17;6.80;56.70
55828;DHT22;41758;51.992;5.890;2023-02-28T00:12:49;6.80;56.30
55828;DHT22;41758;51.992;5.890;2023-02-28T00:15:15;6.90;57.40
55828;DHT22;41758;51.992;5.890;2023-02-28T00:17:41;6.90;57.80
55828;DHT22;41758;51.992;5.890;2023-02-28T00:20:09;7.00;58.20
55828;DHT22;41758;51.992;5.890;2023-02-28T00:22:39;7.00;57.50
55828;DHT22;41758;51.992;5.890;2023-02-28T00:25:06;7.10;56.30
55828;DHT22;41758;51.992;5.890;2023-02-28T00:27:34;7.10;55.90
55828;DHT22;41758;51.992;5.890;2023-02-28T00:30:00;7.10;55.80
55828;DHT22;41758;51.992;5.890;2023-02-28T00:32:26;7.10;55.60
55828;DHT22;41758;51.992;5.890;2023-02-28T00:34:52;7.10;56.00
55828;DHT22;41758;51.992;5.890;2023-02-28T00:37:17;7.10;56.70
55828;DHT22;41758;51.992;5.890;2023-02-28T00:39:43;7.20;55.80
55828;DHT22;41758;51.992;5.890;2023-02-28T00:42:09;7.20;55.30
55828;DHT22;41758;51.992;5.890;2023-02-28T00:44:35;7.20;56.00
55828;DHT22;41758;51.992;5.890;2023-02-28T00:47:01;7.20;56.00
55828;DHT22;41758;51.992;5.890;2023-02-28T00:49:27;7.20;56.10
55828;DHT22;41758;51.992;5.890;2023-02-28T00:51:54;7.30;55.40
55828;DHT22;41758;51.992;5.890;2023-02-28T00:54:20;7.30;55.60
55828;DHT22;41758;51.992;5.890;2023-02-28T00:56:47;7.30;55.50
55828;DHT22;41758;51.992;5.890;2023-02-28T00:59:14;7.30;55.10
55828;DHT22;41758;51.992;5.890;2023-02-28T01:01:39;7.30;54.70
55828;DHT22;41758;51.992;5.890;2023-02-28T01:04:06;7.30;54.80
55828;DHT22;41758;51.992;5.890;2023-02-28T01:06:32;7.30;54.70
55828;DHT22;41758;51.992;5.890;2023-02-28T01:08:58;7.30;55.80
55828;DHT22;41758;51.992;5.890;2023-02-28T01:11:24;7.30;55.50
55828;DHT22;41758;51.992;5.890;2023-02-28T01:13:52;7.30;56.80
55828;DHT22;41758;51.992;5.890;2023-02-28T01:16:18;7.40;56.60
55828;DHT22;41758;51.992;5.890;2023-02-28T01:18:44;7.40;55.30
55828;DHT22;41758;51.992;5.890;2023-02-28T01:21:13;7.50;56.30
55828;DHT22;41758;51.992;5.890;2023-02-28T01:23:39;7.50;56.90
55828;DHT22;41758;51.992;5.890;2023-02-28T01:26:13;7.50;56.00
55828;DHT22;41758;51.992;5.890;2023-02-28T01:28:39;7.50;55.60
55828;DHT22;41758;51.992;5.890;2023-02-28T01:31:05;7.50;56.50
55828;DHT22;41758;51.992;5.890;2023-02-28T01:33:32;7.50;55.10
55828;DHT22;41758;51.992;5.890;2023-02-28T01:38:29;7.50;55.80
55828;DHT22;41758;51.992;5.890;2023-02-28T01:40:55;7.50;55.80
55828;DHT22;41758;51.992;5.890;2023-02-28T01:45:47;7.40;55.00
55828;DHT22;41758;51.992;5.890;2023-02-28T01:48:13;7.40;55.80
55828;DHT22;41758;51.992;5.890;2023-02-28T01:50:41;7.40;55.00
55828;DHT22;41758;51.992;5.890;2023-02-28T01:53:12;7.40;55.20
55828;DHT22;41758;51.992;5.890;2023-02-28T01:55:41;7.40;55.30
55828;DHT22;41758;51.992;5.890;2023-02-28T01:58:08;7.40;56.30
55828;DHT22;41758;51.992;5.890;2023-02-28T02:00:34;7.40;56.20
55828;DHT22;41758;51.992;5.890;2023-02-28T02:03:08;7.40;55.70
55828;DHT22;41758;51.992;5.890;2023-02-28T02:05:37;7.40;54.80
55828;DHT22;41758;51.992;5.890;2023-02-28T02:08:09;7.40;55.20
55828;DHT22;41758;51.992;5.890;2023-02-28T02:10:44;7.40;54.80
55828;DHT22;41758;51.992;5.890;2023-02-28T02:18:52;7.30;54.90
55828;DHT22;41758;51.992;5.890;2023-02-28T02:30:10;7.30;55.50
55828;DHT22;41758;51.992;5.890;2023-02-28T02:35:40;7.30;55.40
55828;DHT22;41758;51.992;5.890;2023-02-28T02:40:48;7.30;55.00
55828;DHT22;41758;51.992;5.890;2023-02-28T02:43:57;7.30;55.40
55828;DHT22;41758;51.992;5.890;2023-02-28T02:49:00;7.30;54.10
55828;DHT22;41758;51.992;5.890;2023-02-28T02:51:30;7.30;53.80
55828;DHT22;41758;51.992;5.890;2023-02-28T02:54:22;7.40;53.50
55828;DHT22;41758;51.992;5.890;2023-02-28T02:56:49;7.40;52.80
55828;DHT22;41758;51.992;5.890;2023-02-28T02:59:20;7.40;52.70
55828;DHT22;41758;51.992;5.890;2023-02-28T03:02:01;7.40;52.60
55828;DHT22;41758;51.992;5.890;2023-02-28T03:04:32;7.40;52.60
55828;DHT22;41758;51.992;5.890;2023-02-28T03:07:00;7.40;52.20
55828;DHT22;41758;51.992;5.890;2023-02-28T03:09:26;7.40;52.20
55828;DHT22;41758;51.992;5.890;2023-02-28T03:11:54;7.40;52.50
55828;DHT22;41758;51.992;5.890;2023-02-28T03:14:59;7.40;52.30
55828;DHT22;41758;51.992;5.890;2023-02-28T03:28:04;7.40;52.70
55828;DHT22;41758;51.992;5.890;2023-02-28T03:35:34;7.30;52.20
55828;DHT22;41758;51.992;5.890;2023-02-28T03:38:12;7.30;51.20
55828;DHT22;41758;51.992;5.890;2023-02-28T03:40:43;7.30;51.20
55828;DHT22;41758;51.992;5.890;2023-02-28T03:43:14;7.40;52.70
55828;DHT22;41758;51.992;5.890;2023-02-28T03:45:43;7.30;53.60
55828;DHT22;41758;51.992;5.890;2023-02-28T03:48:18;7.40;52.00
55828;DHT22;41758;51.992;5.890;2023-02-28T03:50:48;7.40;52.30
55828;DHT22;41758;51.992;5.890;2023-02-28T03:53:39;7.40;53.10
55828;DHT22;41758;51.992;5.890;2023-02-28T03:58:54;7.50;52.00
55828;DHT22;41758;51.992;5.890;2023-02-28T04:01:26;7.50;53.40
55828;DHT22;41758;51.992;5.890;2023-02-28T04:03:53;7.50;53.20
55828;DHT22;41758;51.992;5.890;2023-02-28T04:06:21;7.50;54.00
55828;DHT22;41758;51.992;5.890;2023-02-28T04:08:47;7.50;53.70
55828;DHT22;41758;51.992;5.890;2023-02-28T04:13:47;7.60;50.80
55828;DHT22;41758;51.992;5.890;2023-02-28T04:16:13;7.50;51.70
55828;DHT22;41758;51.992;5.890;2023-02-28T04:18:39;7.50;52.30
55828;DHT22;41758;51.992;5.890;2023-02-28T04:21:06;7.50;51.80
55828;DHT22;41758;51.992;5.890;2023-02-28T04:23:32;7.60;50.50
55828;DHT22;41758;51.992;5.890;2023-02-28T04:25:58;7.50;52.30
55828;DHT22;41758;51.992;5.890;2023-02-28T04:28:25;7.50;52.20
55828;DHT22;41758;51.992;5.890;2023-02-28T04:30:59;7.50;49.40
55828;DHT22;41758;51.992;5.890;2023-02-28T04:33:25;7.50;49.60
55828;DHT22;41758;51.992;5.890;2023-02-28T04:35:59;7.50;51.30
55828;DHT22;41758;51.992;5.890;2023-02-28T04:38:25;7.50;49.50
55828;DHT22;41758;51.992;5.890;2023-02-28T04:40:51;7.50;49.50
55828;DHT22;41758;51.992;5.890;2023-02-28T04:43:16;7.40;52.70
55828;DHT22;41758;51.992;5.890;2023-02-28T04:45:43;7.40;53.10
55828;DHT22;41758;51.992;5.890;2023-02-28T04:48:09;7.40;53.30
55828;DHT22;41758;51.992;5.890;2023-02-28T04:50:35;7.50;53.20
55828;DHT22;41758;51.992;5.890;2023-02-28T04:53:00;7.50;53.50
55828;DHT22;41758;51.992;5.890;2023-02-28T04:55:26;7.50;53.30
55828;DHT22;41758;51.992;5.890;2023-02-28T04:57:52;7.50;53.50
55828;DHT22;41758;51.992;5.890;2023-02-28T05:00:18;7.60;53.40
55828;DHT22;41758;51.992;5.890;2023-02-28T05:02:44;7.50;53.60
55828;DHT22;41758;51.992;5.890;2023-02-28T05:05:09;7.50;53.60
55828;DHT22;41758;51.992;5.890;2023-02-28T05:07:35;7.50;53.90
55828;DHT22;41758;51.992;5.890;2023-02-28T05:10:01;7.50;53.20
55828;DHT22;41758;51.992;5.890;2023-02-28T05:12:26;7.50;52.70
55828;DHT22;41758;51.992;5.890;2023-02-28T05:14:52;7.50;51.90
55828;DHT22;41758;51.992;5.890;2023-02-28T05:17:18;7.40;53.70
55828;DHT22;41758;51.992;5.890;2023-02-28T05:19:44;7.40;53.70
55828;DHT22;41758;51.992;5.890;2023-02-28T05:22:14;7.40;53.30
55828;DHT22;41758;51.992;5.890;2023-02-28T05:24:41;7.40;53.50
55828;DHT22;41758;51.992;5.890;2023-02-28T05:27:08;7.40;53.50
55828;DHT22;41758;51.992;5.890;2023-02-28T05:29:33;7.30;52.40
55828;DHT22;41758;51.992;5.890;2023-02-28T05:31:59;7.30;52.20
55828;DHT22;41758;51.992;5.890;2023-02-28T05:34:25;7.30;53.50
55828;DHT22;41758;51.992;5.890;2023-02-28T05:36:51;7.30;54.20
55828;DHT22;41758;51.992;5.890;2023-02-28T05:39:17;7.20;54.00
55828;DHT22;41758;51.992;5.890;2023-02-28T05:41:43;7.30;53.10
55828;DHT22;41758;51.992;5.890;2023-02-28T05:44:10;7.20;52.50
55828;DHT22;41758;51.992;5.890;2023-02-28T05:46:36;7.20;54.90
55828;DHT22;41758;51.992;5.890;2023-02-28T05:49:02;7.20;53.50
55828;DHT22;41758;51.992;5.890;2023-02-28T05:51:28;7.20;52.90
55828;DHT22;41758;51.992;5.890;2023-02-28T05:53:53;7.20;54.20
55828;DHT22;41758;51.992;5.890;2023-02-28T05:56:19;7.20;54.00
55828;DHT22;41758;51.992;5.890;2023-02-28T05:58:45;7.20;55.10
55828;DHT22;41758;51.992;5.890;2023-02-28T06:01:23;7.20;55.20
55828;DHT22;41758;51.992;5.890;2023-02-28T06:03:49;7.20;53.20
55828;DHT22;41758;51.992;5.890;2023-02-28T06:06:15;7.20;53.70
55828;DHT22;41758;51.992;5.890;2023-02-28T06:08:41;7.20;53.70
55828;DHT22;41758;51.992;5.890;2023-02-28T06:11:08;7.10;53.30
55828;DHT22;41758;51.992;5.890;2023-02-28T06:13:34;7.10;54.80
55828;DHT22;41758;51.992;5.890;2023-02-28T06:16:01;7.20;55.30
55828;DHT22;41758;51.992;5.890;2023-02-28T06:18:26;7.20;53.80
55828;DHT22;41758;51.992;5.890;2023-02-28T06:20:53;7.20;53.10
55828;DHT22;41758;51.992;5.890;2023-02-28T06:23:20;7.10;53.60
55828;DHT22;41758;51.992;5.890;2023-02-28T06:25:46;7.10;54.10
55828;DHT22;41758;51.992;5.890;2023-02-28T06:28:12;7.10;53.20
55828;DHT22;41758;51.992;5.890;2023-02-28T06:30:38;7.10;53.90
55828;DHT22;41758;51.992;5.890;2023-02-28T06:33:04;7.10;54.20
55828;DHT22;41758;51.992;5.890;2023-02-28T06:35:30;7.10;53.50
55828;DHT22;41758;51.992;5.890;2023-02-28T06:37:56;7.10;53.10
55828;DHT22;41758;51.992;5.890;2023-02-28T06:40:23;7.10;53.00
55828;DHT22;41758;51.992;5.890;2023-02-28T06:42:49;7.20;52.00
55828;DHT22;41758;51.992;5.890;2023-02-28T06:45:15;7.10;52.40
55828;DHT22;41758;51.992;5.890;2023-02-28T06:47:41;7.10;52.30
55828;DHT22;41758;51.992;5.890;2023-02-28T06:50:12;7.10;51.10
55828;DHT22;41758;51.992;5.890;2023-02-28T06:52:38;7.20;50.60
55828;DHT22;41758;51.992;5.890;2023-02-28T06:55:06;7.20;50.30
55828;DHT22;41758;51.992;5.890;2023-02-28T06:57:35;7.20;49.50
55828;DHT22;41758;51.992;5.890;2023-02-28T07:00:05;7.20;49.80
55828;DHT22;41758;51.992;5.890;2023-02-28T07:02:33;7.20;49.80
55828;DHT22;41758;51.992;5.890;2023-02-28T07:04:59;7.20;49.20
55828;DHT22;41758;51.992;5.890;2023-02-28T07:07:25;7.30;50.70
55828;DHT22;41758;51.992;5.890;2023-02-28T07:09:51;7.30;49.70
55828;DHT22;41758;51.992;5.890;2023-02-28T07:12:17;7.30;48.90
55828;DHT22;41758;51.992;5.890;2023-02-28T07:14:43;7.30;48.20
55828;DHT22;41758;51.992;5.890;2023-02-28T07:17:10;7.30;48.70
55828;DHT22;41758;51.992;5.890;2023-02-28T07:19:38;7.30;48.50
55828;DHT22;41758;51.992;5.890;2023-02-28T07:22:04;7.30;49.10
55828;DHT22;41758;51.992;5.890;2023-02-28T07:24:30;7.30;48.10
55828;DHT22;41758;51.992;5.890;2023-02-28T07:26:56;7.40;47.90
55828;DHT22;41758;51.992;5.890;2023-02-28T07:29:22;7.40;47.70
55828;DHT22;41758;51.992;5.890;2023-02-28T07:31:48;7.30;47.50
55828;DHT22;41758;51.992;5.890;2023-02-28T07:34:16;7.30;47.20
55828;DHT22;41758;51.992;5.890;2023-02-28T07:36:42;7.40;46.90
55828;DHT22;41758;51.992;5.890;2023-02-28T07:39:07;7.40;47.30
55828;DHT22;41758;51.992;5.890;2023-02-28T07:41:34;7.40;47.10
55828;DHT22;41758;51.992;5.890;2023-02-28T07:44:05;7.30;47.40
55828;DHT22;41758;51.992;5.890;2023-02-28T07:46:30;7.30;47.60
55828;DHT22;41758;51.992;5.890;2023-02-28T07:49:01;7.30;47.70
55828;DHT22;41758;51.992;5.890;2023-02-28T07:51:29;7.30;48.10
55828;DHT22;41758;51.992;5.890;2023-02-28T07:53:55;7.30;46.80
55828;DHT22;41758;51.992;5.890;2023-02-28T07:56:21;7.30;47.20
55828;DHT22;41758;51.992;5.890;2023-02-28T07:58:47;7.30;47.00
55828;DHT22;41758;51.992;5.890;2023-02-28T08:01:13;7.30;47.00
55828;DHT22;41758;51.992;5.890;2023-02-28T08:03:39;7.30;46.90
55828;DHT22;41758;51.992;5.890;2023-02-28T08:06:07;7.30;46.90
55828;DHT22;41758;51.992;5.890;2023-02-28T08:08:33;7.30;46.90
55828;DHT22;41758;51.992;5.890;2023-02-28T08:11:02;7.20;45.90
55828;DHT22;41758;51.992;5.890;2023-02-28T08:13:29;7.20;45.00
55828;DHT22;41758;51.992;5.890;2023-02-28T08:15:56;7.20;44.90
55828;DHT22;41758;51.992;5.890;2023-02-28T08:18:23;7.20;45.20
55828;DHT22;41758;51.992;5.890;2023-02-28T08:20:49;7.20;45.30
55828;DHT22;41758;51.992;5.890;2023-02-28T08:23:15;7.20;44.80
55828;DHT22;41758;51.992;5.890;2023-02-28T08:25:41;7.30;44.70
55828;DHT22;41758;51.992;5.890;2023-02-28T08:28:06;7.30;45.00
55828;DHT22;41758;51.992;5.890;2023-02-28T08:30:32;7.30;44.10
55828;DHT22;41758;51.992;5.890;2023-02-28T08:32:58;7.30;44.10
55828;DHT22;41758;51.992;5.890;2023-02-28T08:35:24;7.30;43.40
55828;DHT22;41758;51.992;5.890;2023-02-28T08:37:50;7.30;42.70
55828;DHT22;41758;51.992;5.890;2023-02-28T08:40:16;7.30;42.50
55828;DHT22;41758;51.992;5.890;2023-02-28T08:42:50;7.30;42.40
55828;DHT22;41758;51.992;5.890;2023-02-28T08:45:16;7.30;41.90
55828;DHT22;41758;51.992;5.890;2023-02-28T08:47:42;7.30;41.60
55828;DHT22;41758;51.992;5.890;2023-02-28T08:50:08;7.30;41.40
55828;DHT22;41758;51.992;5.890;2023-02-28T08:52:34;7.40;41.60
55828;DHT22;41758;51.992;5.890;2023-02-28T08:55:00;7.30;41.20
55828;DHT22;41758;51.992;5.890;2023-02-28T08:57:25;7.40;41.40
55828;DHT22;41758;51.992;5.890;2023-02-28T08:59:52;7.40;41.50
55828;DHT22;41758;51.992;5.890;2023-02-28T09:02:18;7.40;42.10
55828;DHT22;41758;51.992;5.890;2023-02-28T09:04:44;7.50;41.70
55828;DHT22;41758;51.992;5.890;2023-02-28T09:07:11;7.50;40.50
55828;DHT22;41758;51.992;5.890;2023-02-28T09:09:37;7.50;40.40
55828;DHT22;41758;51.992;5.890;2023-02-28T09:12:03;7.50;41.60
55828;DHT22;41758;51.992;5.890;2023-02-28T09:14:30;7.60;41.10
55828;DHT22;41758;51.992;5.890;2023-02-28T09:16:56;7.60;40.10
55828;DHT22;41758;51.992;5.890;2023-02-28T09:19:22;7.60;40.40
55828;DHT22;41758;51.992;5.890;2023-02-28T09:21:47;7.60;39.90
55828;DHT22;41758;51.992;5.890;2023-02-28T09:24:13;7.70;39.90
55828;DHT22;41758;51.992;5.890;2023-02-28T09:26:40;7.70;39.90
55828;DHT22;41758;51.992;5.890;2023-02-28T09:29:06;7.80;39.70
55828;DHT22;41758;51.992;5.890;2023-02-28T09:31:32;7.80;39.70
55828;DHT22;41758;51.992;5.890;2023-02-28T09:33:58;7.90;39.60
55828;DHT22;41758;51.992;5.890;2023-02-28T09:36:26;7.90;39.90
55828;DHT22;41758;51.992;5.890;2023-02-28T09:38:53;8.00;39.90
55828;DHT22;41758;51.992;5.890;2023-02-28T09:41:23;8.10;40.40
55828;DHT22;41758;51.992;5.890;2023-02-28T09:43:56;8.20;39.40
55828;DHT22;41758;51.992;5.890;2023-02-28T09:46:40;8.30;39.70
55828;DHT22;41758;51.992;5.890;2023-02-28T09:49:14;8.30;37.90
55828;DHT22;41758;51.992;5.890;2023-02-28T09:52:01;8.30;37.70
55828;DHT22;41758;51.992;5.890;2023-02-28T09:54:32;8.30;38.20
55828;DHT22;41758;51.992;5.890;2023-02-28T09:57:00;8.30;39.60
55828;DHT22;41758;51.992;5.890;2023-02-28T10:05:00;8.70;38.90
55828;DHT22;41758;51.992;5.890;2023-02-28T10:08:06;8.80;38.90
55828;DHT22;41758;51.992;5.890;2023-02-28T10:10:38;8.90;37.90
55828;DHT22;41758;51.992;5.890;2023-02-28T10:13:22;9.00;38.20
55828;DHT22;41758;51.992;5.890;2023-02-28T10:15:51;9.10;38.40
55828;DHT22;41758;51.992;5.890;2023-02-28T10:18:23;9.30;37.80
55828;DHT22;41758;51.992;5.890;2023-02-28T10:20:50;9.40;37.50
55828;DHT22;41758;51.992;5.890;2023-02-28T10:23:22;9.60;37.50
55828;DHT22;41758;51.992;5.890;2023-02-28T10:26:05;9.70;36.60
55828;DHT22;41758;51.992;5.890;2023-02-28T10:28:53;9.80;35.70
55828;DHT22;41758;51.992;5.890;2023-02-28T10:32:02;9.90;36.10
55828;DHT22;41758;51.992;5.890;2023-02-28T10:37:48;10.30;34.40
55828;DHT22;41758;51.992;5.890;2023-02-28T10:40:43;10.50;35.10
55828;DHT22;41758;51.992;5.890;2023-02-28T10:43:25;10.70;34.30
55828;DHT22;41758;51.992;5.890;2023-02-28T10:46:04;10.90;35.10
55828;DHT22;41758;51.992;5.890;2023-02-28T10:48:57;11.20;34.20
55828;DHT22;41758;51.992;5.890;2023-02-28T10:51:45;11.60;33.80
55828;DHT22;41758;51.992;5.890;2023-02-28T10:54:31;11.80;33.30
55828;DHT22;41758;51.992;5.890;2023-02-28T10:57:22;11.90;33.50
55828;DHT22;41758;51.992;5.890;2023-02-28T11:00:06;12.00;32.50
55828;DHT22;41758;51.992;5.890;2023-02-28T11:02:37;11.90;33.20
55828;DHT22;41758;51.992;5.890;2023-02-28T11:05:30;11.80;33.20
55828;DHT22;41758;51.992;5.890;2023-02-28T11:08:06;11.80;33.10
55828;DHT22;41758;51.992;5.890;2023-02-28T11:10:36;11.60;32.70
55828;DHT22;41758;51.992;5.890;2023-02-28T11:13:05;11.40;33.50
55828;DHT22;41758;51.992;5.890;2023-02-28T11:15:33;11.30;33.80
55828;DHT22;41758;51.992;5.890;2023-02-28T11:18:29;11.20;34.10
55828;DHT22;41758;51.992;5.890;2023-02-28T11:20:58;11.20;35.10
55828;DHT22;41758;51.992;5.890;2023-02-28T11:23:26;11.30;34.60
55828;DHT22;41758;51.992;5.890;2023-02-28T11:26:02;11.40;34.60
55828;DHT22;41758;51.992;5.890;2023-02-28T11:28:39;11.60;34.70
55828;DHT22;41758;51.992;5.890;2023-02-28T11:36:32;11.90;35.70
55828;DHT22;41758;51.992;5.890;2023-02-28T11:39:01;12.40;34.70
55828;DHT22;41758;51.992;5.890;2023-02-28T11:44:33;12.80;33.40
55828;DHT22;41758;51.992;5.890;2023-02-28T11:52:57;13.80;32.20
55828;DHT22;41758;51.992;5.890;2023-02-28T11:55:35;13.90;31.20
55828;DHT22;41758;51.992;5.890;2023-02-28T11:58:37;14.30;31.60
55828;DHT22;41758;51.992;5.890;2023-02-28T12:01:36;14.70;31.40
55828;DHT22;41758;51.992;5.890;2023-02-28T12:18:42;17.60;30.90
55828;DHT22;41758;51.992;5.890;2023-02-28T12:26:46;18.60;28.00
55828;DHT22;41758;51.992;5.890;2023-02-28T12:29:30;18.90;30.80
55828;DHT22;41758;51.992;5.890;2023-02-28T12:33:03;19.30;29.40
55828;DHT22;41758;51.992;5.890;2023-02-28T12:35:12;19.80;29.00
55828;DHT22;41758;51.992;5.890;2023-02-28T12:37:57;20.00;25.90
55828;DHT22;41758;51.992;5.890;2023-02-28T12:40:33;20.20;26.90
55828;DHT22;41758;51.992;5.890;2023-02-28T12:43:07;20.40;25.70
55828;DHT22;41758;51.992;5.890;2023-02-28T12:45:50;20.40;25.20
55828;DHT22;41758;51.992;5.890;2023-02-28T12:48:26;20.50;25.40
55828;DHT22;41758;51.992;5.890;2023-02-28T12:50:53;20.70;26.30
55828;DHT22;41758;51.992;5.890;2023-02-28T12:59:03;21.60;24.50
55828;DHT22;41758;51.992;5.890;2023-02-28T13:04:38;22.00;23.80
55828;DHT22;41758;51.992;5.890;2023-02-28T13:07:15;21.90;23.70
55828;DHT22;41758;51.992;5.890;2023-02-28T13:09:56;21.80;22.60
55828;DHT22;41758;51.992;5.890;2023-02-28T13:12:22;21.80;24.50
55828;DHT22;41758;51.992;5.890;2023-02-28T13:14:49;22.00;26.40
55828;DHT22;41758;51.992;5.890;2023-02-28T13:17:20;22.40;25.50
55828;DHT22;41758;51.992;5.890;2023-02-28T13:22:20;23.30;24.60
55828;DHT22;41758;51.992;5.890;2023-02-28T13:27:50;24.20;23.00
55828;DHT22;41758;51.992;5.890;2023-02-28T13:36:08;22.90;21.40
55828;DHT22;41758;51.992;5.890;2023-02-28T13:38:57;22.10;21.70
55828;DHT22;41758;51.992;5.890;2023-02-28T14:05:32;15.60;27.80
55828;DHT22;41758;51.992;5.890;2023-02-28T14:10:48;15.00;28.40
55828;DHT22;41758;51.992;5.890;2023-02-28T14:16:04;14.60;27.90
55828;DHT22;41758;51.992;5.890;2023-02-28T14:18:36;14.30;28.80
55828;DHT22;41758;51.992;5.890;2023-02-28T14:27:29;13.70;29.00
55828;DHT22;41758;51.992;5.890;2023-02-28T14:30:14;13.50;29.70
55828;DHT22;41758;51.992;5.890;2023-02-28T14:33:18;13.40;29.90
55828;DHT22;41758;51.992;5.890;2023-02-28T14:38:21;13.30;31.10
55828;DHT22;41758;51.992;5.890;2023-02-28T14:40:52;13.20;31.80
55828;DHT22;41758;51.992;5.890;2023-02-28T14:43:24;13.20;32.50
55828;DHT22;41758;51.992;5.890;2023-02-28T14:45:52;13.20;31.00
55828;DHT22;41758;51.992;5.890;2023-02-28T14:48:20;13.20;31.10
55828;DHT22;41758;51.992;5.890;2023-02-28T14:50:52;13.20;31.30
55828;DHT22;41758;51.992;5.890;2023-02-28T14:53:20;13.10;31.90
55828;DHT22;41758;51.992;5.890;2023-02-28T14:55:48;13.00;31.60
55828;DHT22;41758;51.992;5.890;2023-02-28T14:58:29;12.90;33.10
55828;DHT22;41758;51.992;5.890;2023-02-28T15:00:58;12.90;32.90
55828;DHT22;41758;51.992;5.890;2023-02-28T15:03:34;12.80;32.40
55828;DHT22;41758;51.992;5.890;2023-02-28T15:06:05;12.80;32.30
55828;DHT22;41758;51.992;5.890;2023-02-28T15:08:32;12.70;32.50
55828;DHT22;41758;51.992;5.890;2023-02-28T15:11:07;12.70;33.00
55828;DHT22;41758;51.992;5.890;2023-02-28T15:16:10;12.70;32.10
55828;DHT22;41758;51.992;5.890;2023-02-28T15:19:04;12.60;32.20
55828;DHT22;41758;51.992;5.890;2023-02-28T15:21:33;12.60;32.10
55828;DHT22;41758;51.992;5.890;2023-02-28T15:24:17;12.50;32.60
55828;DHT22;41758;51.992;5.890;2023-02-28T15:26:54;12.40;33.90
55828;DHT22;41758;51.992;5.890;2023-02-28T15:29:23;12.40;33.00
55828;DHT22;41758;51.992;5.890;2023-02-28T15:31:55;12.30;33.00
55828;DHT22;41758;51.992;5.890;2023-02-28T15:34:26;12.40;33.00
55828;DHT22;41758;51.992;5.890;2023-02-28T15:36:53;12.40;32.50
55828;DHT22;41758;51.992;5.890;2023-02-28T15:39:24;12.40;32.20
55828;DHT22;41758;51.992;5.890;2023-02-28T15:42:09;12.30;33.70
55828;DHT22;41758;51.992;5.890;2023-02-28T15:44:35;12.20;32.90
55828;DHT22;41758;51.992;5.890;2023-02-28T15:47:04;12.20;32.30
55828;DHT22;41758;51.992;5.890;2023-02-28T15:50:01;12.10;32.00
55828;DHT22;41758;51.992;5.890;2023-02-28T15:52:38;12.00;32.10
55828;DHT22;41758;51.992;5.890;2023-02-28T15:55:24;11.90;32.60
55828;DHT22;41758;51.992;5.890;2023-02-28T15:57:56;11.80;32.50
55828;DHT22;41758;51.992;5.890;2023-02-28T16:00:26;11.80;33.80
55828;DHT22;41758;51.992;5.890;2023-02-28T16:02:52;11.70;33.40
55828;DHT22;41758;51.992;5.890;2023-02-28T16:05:33;11.70;33.60
55828;DHT22;41758;51.992;5.890;2023-02-28T16:11:10;11.60;33.40
55828;DHT22;41758;51.992;5.890;2023-02-28T16:13:39;11.50;34.90
55828;DHT22;41758;51.992;5.890;2023-02-28T16:16:18;11.50;33.40
55828;DHT22;41758;51.992;5.890;2023-02-28T16:18:45;11.40;34.20
55828;DHT22;41758;51.992;5.890;2023-02-28T16:21:11;11.40;34.00
55828;DHT22;41758;51.992;5.890;2023-02-28T16:23:37;11.30;34.80
55828;DHT22;41758;51.992;5.890;2023-02-28T16:26:03;11.30;33.80
55828;DHT22;41758;51.992;5.890;2023-02-28T16:28:34;11.20;33.60
55828;DHT22;41758;51.992;5.890;2023-02-28T16:31:02;11.20;34.60
55828;DHT22;41758;51.992;5.890;2023-02-28T16:33:30;11.10;33.90
55828;DHT22;41758;51.992;5.890;2023-02-28T16:35:57;11.10;33.90
55828;DHT22;41758;51.992;5.890;2023-02-28T16:38:25;11.00;35.10
55828;DHT22;41758;51.992;5.890;2023-02-28T16:40:53;11.00;34.80
55828;DHT22;41758;51.992;5.890;2023-02-28T16:43:24;10.90;35.90
55828;DHT22;41758;51.992;5.890;2023-02-28T16:45:57;10.90;34.80
55828;DHT22;41758;51.992;5.890;2023-02-28T16:48:25;10.80;34.70
55828;DHT22;41758;51.992;5.890;2023-02-28T16:50:51;10.80;34.70
55828;DHT22;41758;51.992;5.890;2023-02-28T16:53:17;10.80;34.60
55828;DHT22;41758;51.992;5.890;2023-02-28T16:55:43;10.80;36.10
55828;DHT22;41758;51.992;5.890;2023-02-28T16:58:14;10.70;37.10
55828;DHT22;41758;51.992;5.890;2023-02-28T17:00:40;10.60;36.00
55828;DHT22;41758;51.992;5.890;2023-02-28T17:03:19;10.50;37.20
55828;DHT22;41758;51.992;5.890;2023-02-28T17:05:48;10.50;36.10
55828;DHT22;41758;51.992;5.890;2023-02-28T17:08:14;10.40;37.30
55828;DHT22;41758;51.992;5.890;2023-02-28T17:10:40;10.30;37.10
55828;DHT22;41758;51.992;5.890;2023-02-28T17:13:05;10.30;37.00
55828;DHT22;41758;51.992;5.890;2023-02-28T17:15:33;10.20;36.50
55828;DHT22;41758;51.992;5.890;2023-02-28T17:17:59;10.10;36.50
55828;DHT22;41758;51.992;5.890;2023-02-28T17:20:24;10.00;37.40
55828;DHT22;41758;51.992;5.890;2023-02-28T17:22:54;9.90;37.20
55828;DHT22;41758;51.992;5.890;2023-02-28T17:25:21;9.90;37.00
55828;DHT22;41758;51.992;5.890;2023-02-28T17:27:47;9.80;37.40
55828;DHT22;41758;51.992;5.890;2023-02-28T17:30:24;9.80;37.00
55828;DHT22;41758;51.992;5.890;2023-02-28T17:32:50;9.70;37.50
55828;DHT22;41758;51.992;5.890;2023-02-28T17:35:16;9.60;36.90
55828;DHT22;41758;51.992;5.890;2023-02-28T17:37:42;9.60;37.70
55828;DHT22;41758;51.992;5.890;2023-02-28T17:40:17;9.50;38.40
55828;DHT22;41758;51.992;5.890;2023-02-28T17:42:44;9.40;37.90
55828;DHT22;41758;51.992;5.890;2023-02-28T17:45:10;9.30;38.70
55828;DHT22;41758;51.992;5.890;2023-02-28T17:47:37;9.30;40.10
55828;DHT22;41758;51.992;5.890;2023-02-28T17:50:03;9.30;37.80
55828;DHT22;41758;51.992;5.890;2023-02-28T17:52:28;9.20;38.40
55828;DHT22;41758;51.992;5.890;2023-02-28T17:54:55;9.20;39.20
55828;DHT22;41758;51.992;5.890;2023-02-28T17:57:20;9.10;38.30
55828;DHT22;41758;51.992;5.890;2023-02-28T17:59:46;9.10;40.80
55828;DHT22;41758;51.992;5.890;2023-02-28T18:02:13;9.10;39.90
55828;DHT22;41758;51.992;5.890;2023-02-28T18:04:39;9.10;39.50
55828;DHT22;41758;51.992;5.890;2023-02-28T18:07:07;9.10;39.90
55828;DHT22;41758;51.992;5.890;2023-02-28T18:09:34;9.00;40.50
55828;DHT22;41758;51.992;5.890;2023-02-28T18:12:00;9.00;40.30
55828;DHT22;41758;51.992;5.890;2023-02-28T18:14:26;9.10;39.70
55828;DHT22;41758;51.992;5.890;2023-02-28T18:16:53;9.00;41.80
55828;DHT22;41758;51.992;5.890;2023-02-28T18:19:19;9.00;40.60
55828;DHT22;41758;51.992;5.890;2023-02-28T18:21:50;9.00;38.80
55828;DHT22;41758;51.992;5.890;2023-02-28T18:24:17;8.90;39.00
55828;DHT22;41758;51.992;5.890;2023-02-28T18:26:44;8.90;41.00
55828;DHT22;41758;51.992;5.890;2023-02-28T18:29:16;8.80;39.60
55828;DHT22;41758;51.992;5.890;2023-02-28T18:31:42;8.80;41.30
55828;DHT22;41758;51.992;5.890;2023-02-28T18:34:08;8.80;41.80
55828;DHT22;41758;51.992;5.890;2023-02-28T18:36:34;8.80;41.30